sensor_id;sensor_type;location;lat;lon;timestamp;P1;durP1;ratioP1;P2;durP2;ratioP2
17947;SDS011;9099;47.958;11.366;2023-04-25T00:00:43;1.08;;;0.98;;
17947;SDS011;9099;47.958;11.366;2023-04-25T00:03:10;1.20;;;1.10;;
17947;SDS011;9099;47.958;11.366;2023-04-25T00:05:38;1.90;;;1.77;;
17947;SDS011;9099;47.958;11.366;2023-04-25T00:08:05;2.35;;;1.55;;
17947;SDS011;9099;47.958;11.366;2023-04-25T00:10:32;2.55;;;1.50;;
17947;SDS011;9099;47.958;11.366;2023-04-25T00:12:59;1.15;;;1.13;;
17947;SDS011;9099;47.958;11.366;2023-04-25T00:15:27;1.20;;;1.20;;
17947;SDS011;9099;47.958;11.366;2023-04-25T00:17:55;2.75;;;1.30;;
17947;SDS011;9099;47.958;11.366;2023-04-25T00:20:22;1.40;;;1.30;;
17947;SDS011;9099;47.958;11.366;2023-04-25T00:22:51;1.38;;;1.33;;
17947;SDS011;9099;47.958;11.366;2023-04-25T00:25:18;1.65;;;1.55;;
17947;SDS011;9099;47.958;11.366;2023-04-25T00:27:45;1.20;;;1.10;;
17947;SDS011;9099;47.958;11.366;2023-04-25T00:30:12;1.50;;;1.40;;
17947;SDS011;9099;47.958;11.366;2023-04-25T00:32:40;1.10;;;1.10;;
17947;SDS011;9099;47.958;11.366;2023-04-25T00:35:07;1.38;;;1.27;;
17947;SDS011;9099;47.958;11.366;2023-04-25T00:37:34;1.70;;;1.60;;
17947;SDS011;9099;47.958;11.366;2023-04-25T00:40:03;1.48;;;1.30;;
17947;SDS011;9099;47.958;11.366;2023-04-25T00:42:32;1.20;;;1.20;;
17947;SDS011;9099;47.958;11.366;2023-04-25T00:45:00;1.30;;;1.20;;
17947;SDS011;9099;47.958;11.366;2023-04-25T00:47:28;1.90;;;1.40;;
17947;SDS011;9099;47.958;11.366;2023-04-25T00:49:55;1.30;;;1.20;;
17947;SDS011;9099;47.958;11.366;2023-04-25T00:52:22;1.50;;;1.40;;
17947;SDS011;9099;47.958;11.366;2023-04-25T00:54:49;1.55;;;1.30;;
17947;SDS011;9099;47.958;11.366;2023-04-25T00:57:17;2.72;;;1.42;;
17947;SDS011;9099;47.958;11.366;2023-04-25T00:59:45;1.52;;;1.40;;
17947;SDS011;9099;47.958;11.366;2023-04-25T01:02:12;1.60;;;1.50;;
17947;SDS011;9099;47.958;11.366;2023-04-25T01:04:39;1.20;;;1.20;;
17947;SDS011;9099;47.958;11.366;2023-04-25T01:07:06;1.30;;;1.20;;
17947;SDS011;9099;47.958;11.366;2023-04-25T01:09:33;1.70;;;1.38;;
17947;SDS011;9099;47.958;11.366;2023-04-25T01:12:00;1.30;;;1.20;;
17947;SDS011;9099;47.958;11.366;2023-04-25T01:14:29;2.35;;;1.27;;
17947;SDS011;9099;47.958;11.366;2023-04-25T01:16:56;1.20;;;1.10;;
17947;SDS011;9099;47.958;11.366;2023-04-25T01:19:24;1.98;;;1.13;;
17947;SDS011;9099;47.958;11.366;2023-04-25T01:21:53;1.20;;;1.10;;
17947;SDS011;9099;47.958;11.366;2023-04-25T01:24:20;1.30;;;1.20;;
17947;SDS011;9099;47.958;11.366;2023-04-25T01:26:47;2.60;;;1.30;;
17947;SDS011;9099;47.958;11.366;2023-04-25T01:29:16;1.23;;;1.23;;
17947;SDS011;9099;47.958;11.366;2023-04-25T01:31:43;1.30;;;1.13;;
17947;SDS011;9099;47.958;11.366;2023-04-25T01:34:11;1.33;;;1.17;;
17947;SDS011;9099;47.958;11.366;2023-04-25T01:36:38;1.30;;;1.20;;
17947;SDS011;9099;47.958;11.366;2023-04-25T01:39:06;3.03;;;1.45;;
17947;SDS011;9099;47.958;11.366;2023-04-25T01:41:33;2.17;;;1.30;;
17947;SDS011;9099;47.958;11.366;2023-04-25T01:44:00;1.65;;;1.15;;
17947;SDS011;9099;47.958;11.366;2023-04-25T01:46:30;1.92;;;1.17;;
17947;SDS011;9099;47.958;11.366;2023-04-25T01:48:57;1.38;;;1.27;;
17947;SDS011;9099;47.958;11.366;2023-04-25T01:51:24;1.75;;;1.40;;
17947;SDS011;9099;47.958;11.366;2023-04-25T01:53:51;1.65;;;1.23;;
17947;SDS011;9099;47.958;11.366;2023-04-25T01:56:19;2.08;;;1.30;;
17947;SDS011;9099;47.958;11.366;2023-04-25T01:58:46;1.10;;;1.02;;
17947;SDS011;9099;47.958;11.366;2023-04-25T02:01:13;1.58;;;1.17;;
17947;SDS011;9099;47.958;11.366;2023-04-25T02:03:40;1.50;;;1.20;;
17947;SDS011;9099;47.958;11.366;2023-04-25T02:06:07;1.30;;;1.20;;
17947;SDS011;9099;47.958;11.366;2023-04-25T02:08:33;1.52;;;1.42;;
17947;SDS011;9099;47.958;11.366;2023-04-25T02:11:02;1.20;;;1.10;;
17947;SDS011;9099;47.958;11.366;2023-04-25T02:13:30;0.90;;;0.90;;
17947;SDS011;9099;47.958;11.366;2023-04-25T02:15:57;1.67;;;1.20;;
17947;SDS011;9099;47.958;11.366;2023-04-25T02:18:24;1.20;;;1.10;;
17947;SDS011;9099;47.958;11.366;2023-04-25T02:20:51;1.17;;;1.10;;
17947;SDS011;9099;47.958;11.366;2023-04-25T02:23:18;1.70;;;1.52;;
17947;SDS011;9099;47.958;11.366;2023-04-25T02:25:45;1.48;;;1.20;;
17947;SDS011;9099;47.958;11.366;2023-04-25T02:28:12;1.50;;;1.40;;
17947;SDS011;9099;47.958;11.366;2023-04-25T02:30:40;2.20;;;1.48;;
17947;SDS011;9099;47.958;11.366;2023-04-25T02:33:07;1.73;;;1.38;;
17947;SDS011;9099;47.958;11.366;2023-04-25T02:35:33;1.38;;;1.27;;
17947;SDS011;9099;47.958;11.366;2023-04-25T02:38:00;1.55;;;1.30;;
17947;SDS011;9099;47.958;11.366;2023-04-25T02:40:27;1.50;;;1.38;;
17947;SDS011;9099;47.958;11.366;2023-04-25T02:42:54;2.13;;;1.65;;
17947;SDS011;9099;47.958;11.366;2023-04-25T02:45:21;1.98;;;1.55;;
17947;SDS011;9099;47.958;11.366;2023-04-25T02:47:49;2.35;;;1.42;;
17947;SDS011;9099;47.958;11.366;2023-04-25T02:50:16;2.75;;;1.40;;
17947;SDS011;9099;47.958;11.366;2023-04-25T02:52:43;2.58;;;1.33;;
17947;SDS011;9099;47.958;11.366;2023-04-25T02:55:10;2.47;;;1.20;;
17947;SDS011;9099;47.958;11.366;2023-04-25T02:57:38;5.03;;;2.20;;
17947;SDS011;9099;47.958;11.366;2023-04-25T03:00:05;7.07;;;4.32;;
17947;SDS011;9099;47.958;11.366;2023-04-25T03:02:33;13.20;;;5.65;;
17947;SDS011;9099;47.958;11.366;2023-04-25T03:05:01;5.88;;;3.55;;
17947;SDS011;9099;47.958;11.366;2023-04-25T03:07:28;2.25;;;1.70;;
17947;SDS011;9099;47.958;11.366;2023-04-25T03:09:55;1.45;;;1.35;;
17947;SDS011;9099;47.958;11.366;2023-04-25T03:12:22;1.48;;;1.23;;
17947;SDS011;9099;47.958;11.366;2023-04-25T03:14:48;1.50;;;1.40;;
17947;SDS011;9099;47.958;11.366;2023-04-25T03:17:15;1.58;;;1.48;;
17947;SDS011;9099;47.958;11.366;2023-04-25T03:19:42;2.10;;;1.23;;
17947;SDS011;9099;47.958;11.366;2023-04-25T03:22:10;3.08;;;1.05;;
17947;SDS011;9099;47.958;11.366;2023-04-25T03:24:37;1.98;;;1.30;;
17947;SDS011;9099;47.958;11.366;2023-04-25T03:27:05;1.00;;;1.00;;
17947;SDS011;9099;47.958;11.366;2023-04-25T03:29:32;0.73;;;0.73;;
17947;SDS011;9099;47.958;11.366;2023-04-25T03:31:58;1.20;;;0.90;;
17947;SDS011;9099;47.958;11.366;2023-04-25T03:34:25;1.02;;;0.98;;
17947;SDS011;9099;47.958;11.366;2023-04-25T03:36:53;1.33;;;0.80;;
17947;SDS011;9099;47.958;11.366;2023-04-25T03:39:21;2.25;;;1.40;;
17947;SDS011;9099;47.958;11.366;2023-04-25T03:41:48;2.05;;;1.25;;
17947;SDS011;9099;47.958;11.366;2023-04-25T03:44:14;1.08;;;0.98;;
17947;SDS011;9099;47.958;11.366;2023-04-25T03:46:41;1.25;;;0.90;;
17947;SDS011;9099;47.958;11.366;2023-04-25T03:49:08;2.00;;;1.10;;
17947;SDS011;9099;47.958;11.366;2023-04-25T03:51:35;2.65;;;1.10;;
17947;SDS011;9099;47.958;11.366;2023-04-25T03:54:02;1.27;;;0.90;;
17947;SDS011;9099;47.958;11.366;2023-04-25T03:56:30;1.77;;;1.20;;
17947;SDS011;9099;47.958;11.366;2023-04-25T03:58:57;0.80;;;0.80;;
17947;SDS011;9099;47.958;11.366;2023-04-25T04:01:24;1.27;;;0.95;;
17947;SDS011;9099;47.958;11.366;2023-04-25T04:03:51;2.72;;;1.30;;
17947;SDS011;9099;47.958;11.366;2023-04-25T04:06:18;0.93;;;0.93;;
17947;SDS011;9099;47.958;11.366;2023-04-25T04:08:45;1.00;;;0.90;;
17947;SDS011;9099;47.958;11.366;2023-04-25T04:11:12;0.98;;;0.93;;
17947;SDS011;9099;47.958;11.366;2023-04-25T04:13:40;1.00;;;1.00;;
17947;SDS011;9099;47.958;11.366;2023-04-25T04:16:07;1.38;;;1.20;;
17947;SDS011;9099;47.958;11.366;2023-04-25T04:18:34;1.33;;;1.13;;
17947;SDS011;9099;47.958;11.366;2023-04-25T04:21:02;1.88;;;1.10;;
17947;SDS011;9099;47.958;11.366;2023-04-25T04:23:29;0.88;;;0.88;;
17947;SDS011;9099;47.958;11.366;2023-04-25T04:25:56;1.80;;;1.70;;
17947;SDS011;9099;47.958;11.366;2023-04-25T04:28:23;2.25;;;1.58;;
17947;SDS011;9099;47.958;11.366;2023-04-25T04:30:51;1.70;;;1.60;;
17947;SDS011;9099;47.958;11.366;2023-04-25T04:33:18;1.63;;;1.20;;
17947;SDS011;9099;47.958;11.366;2023-04-25T04:35:45;1.65;;;1.20;;
17947;SDS011;9099;47.958;11.366;2023-04-25T04:38:13;1.20;;;1.10;;
17947;SDS011;9099;47.958;11.366;2023-04-25T04:40:41;0.70;;;0.70;;
17947;SDS011;9099;47.958;11.366;2023-04-25T04:43:08;1.85;;;1.20;;
17947;SDS011;9099;47.958;11.366;2023-04-25T04:45:35;1.17;;;0.80;;
17947;SDS011;9099;47.958;11.366;2023-04-25T04:48:04;1.38;;;0.95;;
17947;SDS011;9099;47.958;11.366;2023-04-25T04:50:31;1.02;;;1.02;;
17947;SDS011;9099;47.958;11.366;2023-04-25T04:52:58;2.50;;;1.17;;
17947;SDS011;9099;47.958;11.366;2023-04-25T04:55:25;1.40;;;1.30;;
17947;SDS011;9099;47.958;11.366;2023-04-25T04:57:52;1.10;;;1.05;;
17947;SDS011;9099;47.958;11.366;2023-04-25T05:00:19;3.50;;;1.55;;
17947;SDS011;9099;47.958;11.366;2023-04-25T05:02:46;1.20;;;1.15;;
17947;SDS011;9099;47.958;11.366;2023-04-25T05:05:15;1.00;;;1.00;;
17947;SDS011;9099;47.958;11.366;2023-04-25T05:07:42;2.35;;;1.27;;
17947;SDS011;9099;47.958;11.366;2023-04-25T05:10:10;1.52;;;1.33;;
17947;SDS011;9099;47.958;11.366;2023-04-25T05:12:37;1.33;;;1.23;;
17947;SDS011;9099;47.958;11.366;2023-04-25T05:15:04;2.05;;;1.08;;
17947;SDS011;9099;47.958;11.366;2023-04-25T05:17:32;1.20;;;1.10;;
17947;SDS011;9099;47.958;11.366;2023-04-25T05:19:59;1.80;;;1.38;;
17947;SDS011;9099;47.958;11.366;2023-04-25T05:22:28;1.23;;;1.13;;
17947;SDS011;9099;47.958;11.366;2023-04-25T05:24:54;2.03;;;1.27;;
17947;SDS011;9099;47.958;11.366;2023-04-25T05:27:21;1.63;;;1.20;;
17947;SDS011;9099;47.958;11.366;2023-04-25T05:29:48;1.55;;;1.08;;
17947;SDS011;9099;47.958;11.366;2023-04-25T05:32:15;1.90;;;1.58;;
17947;SDS011;9099;47.958;11.366;2023-04-25T05:34:42;1.48;;;1.38;;
17947;SDS011;9099;47.958;11.366;2023-04-25T05:37:09;1.67;;;1.30;;
17947;SDS011;9099;47.958;11.366;2023-04-25T05:39:37;1.25;;;1.15;;
17947;SDS011;9099;47.958;11.366;2023-04-25T05:42:04;2.97;;;1.60;;
17947;SDS011;9099;47.958;11.366;2023-04-25T05:44:31;1.60;;;1.50;;
17947;SDS011;9099;47.958;11.366;2023-04-25T05:46:58;1.75;;;1.08;;
17947;SDS011;9099;47.958;11.366;2023-04-25T05:49:25;2.30;;;1.60;;
17947;SDS011;9099;47.958;11.366;2023-04-25T05:51:52;1.33;;;1.23;;
17947;SDS011;9099;47.958;11.366;2023-04-25T05:54:19;2.25;;;1.15;;
17947;SDS011;9099;47.958;11.366;2023-04-25T05:56:47;1.58;;;1.30;;
17947;SDS011;9099;47.958;11.366;2023-04-25T05:59:14;1.42;;;1.33;;
17947;SDS011;9099;47.958;11.366;2023-04-25T06:01:41;2.00;;;1.40;;
17947;SDS011;9099;47.958;11.366;2023-04-25T06:04:08;2.15;;;1.50;;
17947;SDS011;9099;47.958;11.366;2023-04-25T06:06:35;2.05;;;1.35;;
17947;SDS011;9099;47.958;11.366;2023-04-25T06:09:02;1.55;;;1.40;;
17947;SDS011;9099;47.958;11.366;2023-04-25T06:11:29;2.25;;;2.05;;
17947;SDS011;9099;47.958;11.366;2023-04-25T06:13:57;2.30;;;2.10;;
17947;SDS011;9099;47.958;11.366;2023-04-25T06:16:24;2.33;;;1.90;;
17947;SDS011;9099;47.958;11.366;2023-04-25T06:18:51;3.47;;;1.48;;
17947;SDS011;9099;47.958;11.366;2023-04-25T06:21:18;2.13;;;1.75;;
17947;SDS011;9099;47.958;11.366;2023-04-25T06:23:45;1.67;;;1.58;;
17947;SDS011;9099;47.958;11.366;2023-04-25T06:26:12;3.92;;;1.70;;
17947;SDS011;9099;47.958;11.366;2023-04-25T06:28:39;2.35;;;1.73;;
17947;SDS011;9099;47.958;11.366;2023-04-25T06:31:07;2.10;;;1.38;;
17947;SDS011;9099;47.958;11.366;2023-04-25T06:33:34;2.00;;;1.80;;
17947;SDS011;9099;47.958;11.366;2023-04-25T06:36:01;3.72;;;2.00;;
17947;SDS011;9099;47.958;11.366;2023-04-25T06:38:28;2.45;;;1.70;;
17947;SDS011;9099;47.958;11.366;2023-04-25T06:40:54;3.40;;;2.00;;
17947;SDS011;9099;47.958;11.366;2023-04-25T06:43:21;3.00;;;1.88;;
17947;SDS011;9099;47.958;11.366;2023-04-25T06:45:48;2.70;;;2.10;;
17947;SDS011;9099;47.958;11.366;2023-04-25T06:48:16;2.33;;;2.13;;
17947;SDS011;9099;47.958;11.366;2023-04-25T06:50:43;3.30;;;2.10;;
17947;SDS011;9099;47.958;11.366;2023-04-25T06:53:10;2.65;;;1.80;;
17947;SDS011;9099;47.958;11.366;2023-04-25T06:55:37;2.08;;;1.90;;
17947;SDS011;9099;47.958;11.366;2023-04-25T06:58:04;2.03;;;1.90;;
17947;SDS011;9099;47.958;11.366;2023-04-25T07:00:32;3.85;;;1.90;;
17947;SDS011;9099;47.958;11.366;2023-04-25T07:02:59;2.03;;;1.92;;
17947;SDS011;9099;47.958;11.366;2023-04-25T07:05:27;2.45;;;2.03;;
17947;SDS011;9099;47.958;11.366;2023-04-25T07:07:54;2.80;;;1.90;;
17947;SDS011;9099;47.958;11.366;2023-04-25T07:10:21;2.30;;;2.10;;
17947;SDS011;9099;47.958;11.366;2023-04-25T07:12:47;3.33;;;2.30;;
17947;SDS011;9099;47.958;11.366;2023-04-25T07:15:14;1.95;;;1.80;;
17947;SDS011;9099;47.958;11.366;2023-04-25T07:17:41;3.33;;;1.88;;
17947;SDS011;9099;47.958;11.366;2023-04-25T07:20:08;2.40;;;1.88;;
17947;SDS011;9099;47.958;11.366;2023-04-25T07:22:37;2.00;;;1.80;;
17947;SDS011;9099;47.958;11.366;2023-04-25T07:25:04;2.33;;;1.73;;
17947;SDS011;9099;47.958;11.366;2023-04-25T07:27:33;1.70;;;1.60;;
17947;SDS011;9099;47.958;11.366;2023-04-25T07:30:00;1.83;;;1.73;;
17947;SDS011;9099;47.958;11.366;2023-04-25T07:32:28;3.88;;;1.75;;
17947;SDS011;9099;47.958;11.366;2023-04-25T07:34:54;2.03;;;1.70;;
17947;SDS011;9099;47.958;11.366;2023-04-25T07:37:21;3.95;;;1.70;;
17947;SDS011;9099;47.958;11.366;2023-04-25T07:39:50;1.80;;;1.60;;
17947;SDS011;9099;47.958;11.366;2023-04-25T07:42:17;2.03;;;1.63;;
17947;SDS011;9099;47.958;11.366;2023-04-25T07:44:43;1.75;;;1.65;;
17947;SDS011;9099;47.958;11.366;2023-04-25T07:47:10;2.97;;;1.65;;
17947;SDS011;9099;47.958;11.366;2023-04-25T07:49:38;2.75;;;1.60;;
17947;SDS011;9099;47.958;11.366;2023-04-25T07:52:05;2.38;;;1.85;;
17947;SDS011;9099;47.958;11.366;2023-04-25T07:54:32;2.28;;;1.65;;
17947;SDS011;9099;47.958;11.366;2023-04-25T07:57:00;3.63;;;1.80;;
17947;SDS011;9099;47.958;11.366;2023-04-25T07:59:28;3.33;;;2.10;;
17947;SDS011;9099;47.958;11.366;2023-04-25T08:01:55;2.10;;;1.90;;
17947;SDS011;9099;47.958;11.366;2023-04-25T08:04:22;2.05;;;1.60;;
17947;SDS011;9099;47.958;11.366;2023-04-25T08:06:50;2.75;;;1.77;;
17947;SDS011;9099;47.958;11.366;2023-04-25T08:09:17;2.72;;;1.40;;
17947;SDS011;9099;47.958;11.366;2023-04-25T08:11:44;3.05;;;1.48;;
17947;SDS011;9099;47.958;11.366;2023-04-25T08:14:12;3.95;;;1.58;;
17947;SDS011;9099;47.958;11.366;2023-04-25T08:16:39;2.90;;;2.25;;
17947;SDS011;9099;47.958;11.366;2023-04-25T08:19:07;2.25;;;1.85;;
17947;SDS011;9099;47.958;11.366;2023-04-25T08:21:34;3.42;;;2.00;;
17947;SDS011;9099;47.958;11.366;2023-04-25T08:24:00;1.60;;;1.50;;
17947;SDS011;9099;47.958;11.366;2023-04-25T08:26:27;2.15;;;1.88;;
17947;SDS011;9099;47.958;11.366;2023-04-25T08:28:54;2.50;;;1.90;;
17947;SDS011;9099;47.958;11.366;2023-04-25T08:31:23;2.58;;;2.38;;
17947;SDS011;9099;47.958;11.366;2023-04-25T08:33:49;3.35;;;2.30;;
17947;SDS011;9099;47.958;11.366;2023-04-25T08:36:16;1.70;;;1.60;;
17947;SDS011;9099;47.958;11.366;2023-04-25T08:38:43;1.20;;;1.10;;
17947;SDS011;9099;47.958;11.366;2023-04-25T08:41:11;3.03;;;2.10;;
17947;SDS011;9099;47.958;11.366;2023-04-25T08:43:39;2.75;;;2.08;;
17947;SDS011;9099;47.958;11.366;2023-04-25T08:46:09;2.30;;;1.60;;
17947;SDS011;9099;47.958;11.366;2023-04-25T08:48:40;2.30;;;1.60;;
17947;SDS011;9099;47.958;11.366;2023-04-25T08:51:08;2.13;;;1.30;;
17947;SDS011;9099;47.958;11.366;2023-04-25T08:53:37;1.38;;;1.23;;
17947;SDS011;9099;47.958;11.366;2023-04-25T08:56:07;2.70;;;1.20;;
17947;SDS011;9099;47.958;11.366;2023-04-25T08:58:38;1.70;;;1.35;;
17947;SDS011;9099;47.958;11.366;2023-04-25T09:01:05;2.40;;;1.40;;
17947;SDS011;9099;47.958;11.366;2023-04-25T09:03:32;1.10;;;1.10;;
17947;SDS011;9099;47.958;11.366;2023-04-25T09:06:00;1.65;;;0.90;;
17947;SDS011;9099;47.958;11.366;2023-04-25T09:08:28;2.03;;;1.10;;
17947;SDS011;9099;47.958;11.366;2023-04-25T09:10:55;1.90;;;1.50;;
17947;SDS011;9099;47.958;11.366;2023-04-25T09:13:24;2.22;;;2.03;;
17947;SDS011;9099;47.958;11.366;2023-04-25T09:15:53;1.52;;;1.40;;
17947;SDS011;9099;47.958;11.366;2023-04-25T09:18:22;2.35;;;1.65;;
17947;SDS011;9099;47.958;11.366;2023-04-25T09:20:50;1.45;;;1.30;;
17947;SDS011;9099;47.958;11.366;2023-04-25T09:23:19;1.92;;;1.80;;
17947;SDS011;9099;47.958;11.366;2023-04-25T09:25:47;1.92;;;1.52;;
17947;SDS011;9099;47.958;11.366;2023-04-25T09:28:14;1.90;;;1.20;;
17947;SDS011;9099;47.958;11.366;2023-04-25T09:30:41;3.10;;;2.45;;
17947;SDS011;9099;47.958;11.366;2023-04-25T09:33:09;1.92;;;1.40;;
17947;SDS011;9099;47.958;11.366;2023-04-25T09:35:37;1.33;;;1.00;;
17947;SDS011;9099;47.958;11.366;2023-04-25T09:38:09;1.35;;;1.10;;
17947;SDS011;9099;47.958;11.366;2023-04-25T09:40:42;1.73;;;1.30;;
17947;SDS011;9099;47.958;11.366;2023-04-25T09:43:10;1.23;;;1.13;;
17947;SDS011;9099;47.958;11.366;2023-04-25T09:45:41;1.98;;;1.10;;
17947;SDS011;9099;47.958;11.366;2023-04-25T09:48:11;1.42;;;1.17;;
17947;SDS011;9099;47.958;11.366;2023-04-25T09:50:40;1.05;;;0.80;;
17947;SDS011;9099;47.958;11.366;2023-04-25T09:53:07;1.20;;;1.08;;
17947;SDS011;9099;47.958;11.366;2023-04-25T09:55:35;1.00;;;1.00;;
17947;SDS011;9099;47.958;11.366;2023-04-25T09:58:05;1.13;;;1.02;;
17947;SDS011;9099;47.958;11.366;2023-04-25T10:00:32;1.80;;;1.15;;
17947;SDS011;9099;47.958;11.366;2023-04-25T10:03:00;1.58;;;1.02;;
17947;SDS011;9099;47.958;11.366;2023-04-25T10:05:29;1.38;;;1.00;;
17947;SDS011;9099;47.958;11.366;2023-04-25T10:07:58;0.85;;;0.85;;
17947;SDS011;9099;47.958;11.366;2023-04-25T10:10:28;2.55;;;1.20;;
17947;SDS011;9099;47.958;11.366;2023-04-25T10:13:01;1.00;;;0.90;;
17947;SDS011;9099;47.958;11.366;2023-04-25T10:15:32;1.38;;;1.20;;
17947;SDS011;9099;47.958;11.366;2023-04-25T10:18:01;1.52;;;1.30;;
17947;SDS011;9099;47.958;11.366;2023-04-25T10:20:29;1.08;;;1.00;;
17947;SDS011;9099;47.958;11.366;2023-04-25T10:22:57;2.05;;;1.10;;
17947;SDS011;9099;47.958;11.366;2023-04-25T10:25:30;1.60;;;1.30;;
17947;SDS011;9099;47.958;11.366;2023-04-25T10:27:57;2.20;;;1.30;;
17947;SDS011;9099;47.958;11.366;2023-04-25T10:30:28;1.85;;;1.35;;
17947;SDS011;9099;47.958;11.366;2023-04-25T10:32:55;2.40;;;1.13;;
17947;SDS011;9099;47.958;11.366;2023-04-25T10:35:24;2.28;;;1.15;;
17947;SDS011;9099;47.958;11.366;2023-04-25T10:37:58;1.27;;;1.17;;
17947;SDS011;9099;47.958;11.366;2023-04-25T10:40:26;1.63;;;1.27;;
17947;SDS011;9099;47.958;11.366;2023-04-25T10:42:53;1.17;;;0.93;;
17947;SDS011;9099;47.958;11.366;2023-04-25T10:45:21;1.33;;;0.95;;
17947;SDS011;9099;47.958;11.366;2023-04-25T10:47:49;2.13;;;1.52;;
17947;SDS011;9099;47.958;11.366;2023-04-25T10:50:16;1.42;;;1.15;;
17947;SDS011;9099;47.958;11.366;2023-04-25T10:52:43;2.55;;;1.40;;
17947;SDS011;9099;47.958;11.366;2023-04-25T10:55:10;1.20;;;1.10;;
17947;SDS011;9099;47.958;11.366;2023-04-25T10:57:38;1.40;;;1.30;;
17947;SDS011;9099;47.958;11.366;2023-04-25T11:00:08;2.10;;;1.23;;
17947;SDS011;9099;47.958;11.366;2023-04-25T11:02:46;1.35;;;1.20;;
17947;SDS011;9099;47.958;11.366;2023-04-25T11:05:20;2.78;;;1.40;;
17947;SDS011;9099;47.958;11.366;2023-04-25T11:07:50;1.88;;;1.17;;
17947;SDS011;9099;47.958;11.366;2023-04-25T11:10:19;1.30;;;1.20;;
17947;SDS011;9099;47.958;11.366;2023-04-25T11:12:46;1.40;;;1.23;;
17947;SDS011;9099;47.958;11.366;2023-04-25T11:15:13;1.30;;;1.20;;
17947;SDS011;9099;47.958;11.366;2023-04-25T11:17:40;1.65;;;0.80;;
17947;SDS011;9099;47.958;11.366;2023-04-25T11:20:08;0.95;;;0.90;;
17947;SDS011;9099;47.958;11.366;2023-04-25T11:22:38;1.20;;;0.90;;
17947;SDS011;9099;47.958;11.366;2023-04-25T11:25:07;0.70;;;0.70;;
17947;SDS011;9099;47.958;11.366;2023-04-25T11:27:37;0.98;;;0.90;;
17947;SDS011;9099;47.958;11.366;2023-04-25T11:30:09;1.60;;;0.90;;
17947;SDS011;9099;47.958;11.366;2023-04-25T11:32:39;1.08;;;1.08;;
17947;SDS011;9099;47.958;11.366;2023-04-25T11:35:06;1.20;;;1.10;;
17947;SDS011;9099;47.958;11.366;2023-04-25T11:37:33;1.17;;;1.08;;
17947;SDS011;9099;47.958;11.366;2023-04-25T11:40:01;1.20;;;1.10;;
17947;SDS011;9099;47.958;11.366;2023-04-25T11:42:31;2.65;;;1.55;;
17947;SDS011;9099;47.958;11.366;2023-04-25T11:44:58;1.25;;;1.10;;
17947;SDS011;9099;47.958;11.366;2023-04-25T11:47:27;1.40;;;0.93;;
17947;SDS011;9099;47.958;11.366;2023-04-25T11:49:55;1.02;;;0.90;;
17947;SDS011;9099;47.958;11.366;2023-04-25T11:52:23;0.93;;;0.80;;
17947;SDS011;9099;47.958;11.366;2023-04-25T11:54:50;0.98;;;0.70;;
17947;SDS011;9099;47.958;11.366;2023-04-25T11:57:19;0.82;;;0.80;;
17947;SDS011;9099;47.958;11.366;2023-04-25T11:59:47;1.90;;;1.00;;
17947;SDS011;9099;47.958;11.366;2023-04-25T12:02:23;2.35;;;0.90;;
17947;SDS011;9099;47.958;11.366;2023-04-25T12:04:51;1.15;;;0.70;;
17947;SDS011;9099;47.958;11.366;2023-04-25T12:07:18;0.85;;;0.85;;
17947;SDS011;9099;47.958;11.366;2023-04-25T12:09:50;0.90;;;0.90;;
17947;SDS011;9099;47.958;11.366;2023-04-25T12:12:19;1.10;;;1.00;;
17947;SDS011;9099;47.958;11.366;2023-04-25T12:14:46;0.77;;;0.77;;
17947;SDS011;9099;47.958;11.366;2023-04-25T12:17:14;1.45;;;0.80;;
17947;SDS011;9099;47.958;11.366;2023-04-25T12:19:40;0.90;;;0.90;;
17947;SDS011;9099;47.958;11.366;2023-04-25T12:22:19;0.93;;;0.93;;
17947;SDS011;9099;47.958;11.366;2023-04-25T12:24:47;1.10;;;1.00;;
17947;SDS011;9099;47.958;11.366;2023-04-25T12:27:14;1.73;;;0.60;;
17947;SDS011;9099;47.958;11.366;2023-04-25T12:29:51;2.05;;;1.00;;
17947;SDS011;9099;47.958;11.366;2023-04-25T12:32:19;0.70;;;0.70;;
17947;SDS011;9099;47.958;11.366;2023-04-25T12:34:46;0.73;;;0.73;;
17947;SDS011;9099;47.958;11.366;2023-04-25T12:37:13;0.75;;;0.75;;
17947;SDS011;9099;47.958;11.366;2023-04-25T12:39:41;0.63;;;0.63;;
17947;SDS011;9099;47.958;11.366;2023-04-25T12:42:07;0.80;;;0.80;;
17947;SDS011;9099;47.958;11.366;2023-04-25T12:44:36;0.93;;;0.93;;
17947;SDS011;9099;47.958;11.366;2023-04-25T12:47:05;0.88;;;0.75;;
17947;SDS011;9099;47.958;11.366;2023-04-25T12:49:32;0.85;;;0.68;;
17947;SDS011;9099;47.958;11.366;2023-04-25T12:51:59;0.50;;;0.50;;
17947;SDS011;9099;47.958;11.366;2023-04-25T12:54:25;0.80;;;0.80;;
17947;SDS011;9099;47.958;11.366;2023-04-25T12:56:52;0.88;;;0.88;;
17947;SDS011;9099;47.958;11.366;2023-04-25T12:59:19;1.50;;;1.10;;
17947;SDS011;9099;47.958;11.366;2023-04-25T13:01:46;0.73;;;0.70;;
17947;SDS011;9099;47.958;11.366;2023-04-25T13:04:15;0.40;;;0.40;;
17947;SDS011;9099;47.958;11.366;2023-04-25T13:06:42;0.57;;;0.38;;
17947;SDS011;9099;47.958;11.366;2023-04-25T13:09:09;0.60;;;0.60;;
17947;SDS011;9099;47.958;11.366;2023-04-25T13:11:37;0.47;;;0.47;;
17947;SDS011;9099;47.958;11.366;2023-04-25T13:14:04;0.55;;;0.55;;
17947;SDS011;9099;47.958;11.366;2023-04-25T13:16:31;0.60;;;0.60;;
17947;SDS011;9099;47.958;11.366;2023-04-25T13:18:58;0.60;;;0.60;;
17947;SDS011;9099;47.958;11.366;2023-04-25T13:21:26;0.40;;;0.40;;
17947;SDS011;9099;47.958;11.366;2023-04-25T13:23:57;0.60;;;0.43;;
17947;SDS011;9099;47.958;11.366;2023-04-25T13:26:23;0.40;;;0.40;;
17947;SDS011;9099;47.958;11.366;2023-04-25T13:28:50;0.30;;;0.30;;
17947;SDS011;9099;47.958;11.366;2023-04-25T13:31:17;0.50;;;0.32;;
17947;SDS011;9099;47.958;11.366;2023-04-25T13:33:44;0.20;;;0.20;;
17947;SDS011;9099;47.958;11.366;2023-04-25T13:36:11;0.30;;;0.28;;
17947;SDS011;9099;47.958;11.366;2023-04-25T13:38:39;0.40;;;0.40;;
17947;SDS011;9099;47.958;11.366;2023-04-25T13:41:08;0.95;;;0.20;;
17947;SDS011;9099;47.958;11.366;2023-04-25T13:43:36;0.20;;;0.20;;
17947;SDS011;9099;47.958;11.366;2023-04-25T13:46:03;0.57;;;0.40;;
17947;SDS011;9099;47.958;11.366;2023-04-25T13:48:30;0.43;;;0.40;;
17947;SDS011;9099;47.958;11.366;2023-04-25T13:50:56;0.22;;;0.22;;
17947;SDS011;9099;47.958;11.366;2023-04-25T13:53:23;0.30;;;0.30;;
17947;SDS011;9099;47.958;11.366;2023-04-25T13:55:52;0.20;;;0.20;;
17947;SDS011;9099;47.958;11.366;2023-04-25T13:58:18;0.63;;;0.40;;
17947;SDS011;9099;47.958;11.366;2023-04-25T14:00:46;0.47;;;0.47;;
17947;SDS011;9099;47.958;11.366;2023-04-25T14:03:12;0.35;;;0.35;;
17947;SDS011;9099;47.958;11.366;2023-04-25T14:05:39;0.30;;;0.30;;
17947;SDS011;9099;47.958;11.366;2023-04-25T14:08:08;0.30;;;0.30;;
17947;SDS011;9099;47.958;11.366;2023-04-25T14:10:36;0.30;;;0.30;;
17947;SDS011;9099;47.958;11.366;2023-04-25T14:13:04;0.40;;;0.40;;
17947;SDS011;9099;47.958;11.366;2023-04-25T14:15:32;0.20;;;0.20;;
17947;SDS011;9099;47.958;11.366;2023-04-25T14:17:59;0.85;;;0.30;;
17947;SDS011;9099;47.958;11.366;2023-04-25T14:20:26;1.00;;;1.00;;
17947;SDS011;9099;47.958;11.366;2023-04-25T14:22:54;1.00;;;0.90;;
17947;SDS011;9099;47.958;11.366;2023-04-25T14:25:21;0.82;;;0.82;;
17947;SDS011;9099;47.958;11.366;2023-04-25T14:27:48;0.77;;;0.77;;
17947;SDS011;9099;47.958;11.366;2023-04-25T14:30:17;3.30;;;2.78;;
17947;SDS011;9099;47.958;11.366;2023-04-25T14:32:44;1.48;;;1.30;;
17947;SDS011;9099;47.958;11.366;2023-04-25T14:35:12;1.25;;;1.13;;
17947;SDS011;9099;47.958;11.366;2023-04-25T14:37:39;1.00;;;1.00;;
17947;SDS011;9099;47.958;11.366;2023-04-25T14:40:06;2.35;;;1.92;;
17947;SDS011;9099;47.958;11.366;2023-04-25T14:42:35;3.75;;;3.35;;
17947;SDS011;9099;47.958;11.366;2023-04-25T14:45:02;2.08;;;1.88;;
17947;SDS011;9099;47.958;11.366;2023-04-25T14:47:32;1.20;;;1.10;;
17947;SDS011;9099;47.958;11.366;2023-04-25T14:49:59;2.17;;;1.98;;